Time;durP1;ratioP1;P1;durP2;ratioP2;P2;SDS_P1;SDS_P2;PMS_P1;PMS_P2;Temp;Humidity;BMP_temperature;BMP_pressure;BME280_temperature;BME280_humidity;BME280_pressure;Samples;Min_cycle;Max_cycle;Signal;HPM_P1;HPM_P2
2022/07/21 00:00:59;;;;;;;47.00;31.20;;;;;;;23.77;62.97;101214.25;4894189;28;125119;-79
2022/07/21 00:03:25;;;;;;;41.93;30.90;;;;;;;23.75;62.82;101210.47;4907182;28;124578;-79
2022/07/21 00:05:50;;;;;;;45.03;31.07;;;;;;;23.73;63.09;101210.25;4897007;28;124640;-79
2022/07/21 00:08:16;;;;;;;42.83;31.13;;;;;;;23.65;63.02;101203.72;4905858;28;122235;-79
2022/07/21 00:10:42;;;;;;;43.88;30.83;;;;;;;23.61;63.07;101198.41;4907309;28;124919;-79
2022/07/21 00:13:08;;;;;;;45.08;30.67;;;;;;;23.68;63.41;101200.63;4890270;28;125000;-79
2022/07/21 00:15:33;;;;;;;44.40;30.58;;;;;;;23.65;63.34;101206.50;4904880;28;122192;-79
2022/07/21 00:17:59;;;;;;;43.63;29.95;;;;;;;23.62;63.11;101191.53;4908297;28;122105;-79
2022/07/21 00:20:27;;;;;;;43.03;31.17;;;;;;;23.61;63.06;101190.00;4922726;28;122108;-79
2022/07/21 00:22:54;;;;;;;45.20;31.40;;;;;;;23.63;62.64;101198.66;4910766;28;121654;-79
2022/07/21 00:25:20;;;;;;;43.57;31.40;;;;;;;23.61;62.85;101195.63;4886188;28;123249;-79
2022/07/21 00:27:46;;;;;;;47.78;31.15;;;;;;;23.57;62.92;101200.75;4887785;28;121949;-79
2022/07/21 00:30:12;;;;;;;44.78;31.40;;;;;;;23.54;63.08;101199.75;4898453;28;121905;-79
2022/07/21 00:32:38;;;;;;;42.50;30.10;;;;;;;23.54;63.61;101201.81;4915048;28;121956;-79
2022/07/21 00:35:06;;;;;;;42.03;30.42;;;;;;;23.46;63.44;101195.28;4906520;28;122153;-79
2022/07/21 00:37:34;;;;;;;44.28;30.60;;;;;;;23.52;63.37;101193.16;4885944;28;122289;-79
2022/07/21 00:40:05;;;;;;;44.67;31.87;;;;;;;23.51;63.45;101188.88;4894206;28;123169;-78
2022/07/21 00:42:31;;;;;;;46.40;31.65;;;;;;;23.46;63.34;101175.69;4890606;28;121973;-79
2022/07/21 00:44:59;;;;;;;46.08;32.20;;;;;;;23.45;63.73;101171.38;4892636;28;122164;-79
2022/07/21 00:47:30;;;;;;;45.17;31.08;;;;;;;23.43;63.34;101174.72;4885272;28;123147;-79
2022/07/21 00:49:56;;;;;;;48.65;32.45;;;;;;;23.41;63.77;101174.47;4884639;28;124100;-79
2022/07/21 00:52:23;;;;;;;52.33;33.08;;;;;;;23.36;63.34;101166.91;4893900;28;125725;-79
2022/07/21 00:54:49;;;;;;;50.17;33.75;;;;;;;23.30;63.56;101159.88;4902209;28;122101;-79
2022/07/21 00:57:15;;;;;;;53.93;34.90;;;;;;;23.32;63.48;101157.28;4894644;28;122036;-79
2022/07/21 00:59:42;;;;;;;51.05;34.55;;;;;;;23.28;63.49;101158.34;4916146;28;121942;-79
2022/07/21 01:02:12;;;;;;;51.03;34.93;;;;;;;23.23;64.22;101153.59;4898569;28;122107;-79
2022/07/21 01:04:41;;;;;;;52.00;35.55;;;;;;;23.25;64.41;101167.81;4905801;28;123498;-79
2022/07/21 01:07:07;;;;;;;53.53;34.92;;;;;;;23.24;64.55;101157.91;4893599;28;125629;-80
2022/07/21 01:09:34;;;;;;;50.67;35.27;;;;;;;23.20;64.19;101160.25;4894317;28;122082;-79
2022/07/21 01:12:00;;;;;;;49.90;35.53;;;;;;;23.16;64.50;101151.38;4896316;28;121812;-79
2022/07/21 01:14:26;;;;;;;51.58;35.30;;;;;;;23.15;64.26;101154.69;4905294;28;121640;-79
2022/07/21 01:16:52;;;;;;;49.57;34.73;;;;;;;23.07;64.74;101143.34;4887637;28;123835;-79
2022/07/21 01:19:19;;;;;;;54.77;36.10;;;;;;;23.10;64.60;101153.47;4896298;28;121549;-79
2022/07/21 01:21:47;;;;;;;54.05;36.97;;;;;;;23.10;64.78;101147.88;4922944;28;121504;-79
2022/07/21 01:24:14;;;;;;;54.47;36.75;;;;;;;23.07;64.33;101143.34;4907059;28;121223;-79
2022/07/21 01:26:52;;;;;;;51.03;36.05;;;;;;;23.00;64.60;101135.56;4887867;28;121483;-79
2022/07/21 01:29:19;;;;;;;51.60;36.20;;;;;;;23.03;64.49;101142.88;4893032;28;121521;-79
2022/07/21 01:31:47;;;;;;;54.03;36.45;;;;;;;23.03;64.32;101130.94;4907535;28;121585;-79
2022/07/21 01:34:26;;;;;;;53.42;36.38;;;;;;;23.03;64.85;101136.53;4907201;28;122259;-79
2022/07/21 01:36:52;;;;;;;56.03;37.37;;;;;;;23.03;64.43;101131.69;4891107;28;123558;-79
2022/07/21 01:42:06;;;;;;;56.47;37.80;;;;;;;23.02;65.09;101135.03;4893895;28;121524;-79
2022/07/21 01:44:31;;;;;;;54.67;36.93;;;;;;;22.98;65.08;101138.13;4909446;28;122134;-79
2022/07/21 01:46:57;;;;;;;54.93;36.73;;;;;;;22.94;65.21;101132.78;4897897;28;122618;-79
2022/07/21 01:49:23;;;;;;;50.93;36.27;;;;;;;23.00;65.13;101134.78;4913327;28;121330;-79
2022/07/21 01:51:55;;;;;;;56.47;35.83;;;;;;;22.98;64.92;101128.97;4900495;28;124817;-79
2022/07/21 01:54:20;;;;;;;56.65;35.55;;;;;;;23.02;64.88;101130.19;4919402;28;123017;-79
2022/07/21 01:56:46;;;;;;;57.20;36.50;;;;;;;22.98;65.35;101124.13;4909661;28;121643;-79
2022/07/21 01:59:12;;;;;;;51.63;36.10;;;;;;;22.96;65.36;101119.06;4924471;28;121986;-79
2022/07/21 02:01:37;;;;;;;56.65;37.25;;;;;;;23.02;65.49;101123.84;4910010;28;121940;-79
2022/07/21 02:04:05;;;;;;;54.53;35.63;;;;;;;22.99;65.43;101119.28;4908764;28;123419;-79
2022/07/21 02:06:31;;;;;;;51.25;34.92;;;;;;;23.03;65.35;101130.94;4907826;28;121608;-79
2022/07/21 02:08:57;;;;;;;53.47;35.57;;;;;;;22.98;65.41;101110.16;4925597;28;121381;-79
2022/07/21 02:11:27;;;;;;;50.35;34.92;;;;;;;23.03;65.05;101123.31;4897213;28;122381;-79
2022/07/21 02:13:52;;;;;;;59.07;35.57;;;;;;;23.03;65.26;101122.56;4909396;28;121217;-78
2022/07/21 02:16:18;;;;;;;52.37;35.90;;;;;;;23.01;65.18;101116.72;4895622;28;123726;-79
2022/07/21 02:18:44;;;;;;;56.63;36.57;;;;;;;23.02;64.90;101132.22;4890946;28;121591;-79
2022/07/21 02:21:10;;;;;;;53.13;36.03;;;;;;;23.00;65.23;101127.16;4903571;28;121078;-79
2022/07/21 02:23:35;;;;;;;58.38;38.17;;;;;;;22.98;65.12;101131.78;4913678;28;121034;-79
2022/07/21 02:26:01;;;;;;;58.03;36.65;;;;;;;22.88;65.09;101125.75;4896953;28;124258;-79
2022/07/21 02:28:27;;;;;;;57.17;36.88;;;;;;;22.94;65.18;101140.44;4921076;28;120987;-79
2022/07/21 02:30:54;;;;;;;57.67;36.40;;;;;;;22.87;65.41;101136.19;4922497;28;124247;-79
2022/07/21 02:33:20;;;;;;;56.35;36.63;;;;;;;22.91;65.59;101147.09;4912636;28;124957;-79
2022/07/21 02:35:46;;;;;;;61.10;36.30;;;;;;;22.87;65.95;101136.19;4906446;28;123292;-79
2022/07/21 02:38:12;;;;;;;63.03;37.03;;;;;;;22.88;65.91;101139.75;4908331;28;121315;-79
2022/07/21 02:40:41;;;;;;;59.63;38.63;;;;;;;22.84;66.16;101128.84;4923276;28;121366;-79
2022/07/21 02:43:11;;;;;;;56.50;36.33;;;;;;;22.85;66.24;101135.97;4908990;28;121159;-79
2022/07/21 02:45:41;;;;;;;56.57;37.93;;;;;;;22.89;65.16;101132.88;4906944;28;121471;-79
2022/07/21 02:48:09;;;;;;;57.30;37.47;;;;;;;22.87;65.33;101135.44;4908559;28;121394;-79
2022/07/21 02:50:38;;;;;;;61.53;37.47;;;;;;;22.88;65.45;101125.75;4907510;28;122738;-79
2022/07/21 02:53:07;;;;;;;61.95;37.47;;;;;;;22.88;65.84;101129.31;4908187;28;121560;-79
2022/07/21 02:55:33;;;;;;;63.23;39.23;;;;;;;22.88;65.37;101120.16;4922909;28;121582;-78
2022/07/21 02:58:11;;;;;;;62.25;39.17;;;;;;;22.84;65.77;101103.69;4907137;28;124440;-79
2022/07/21 03:00:40;;;;;;;62.13;40.28;;;;;;;22.79;65.83;101096.09;4891497;28;122381;-79
2022/07/21 03:03:06;;;;;;;61.22;40.38;;;;;;;22.71;65.74;101091.59;4920586;28;121361;-79
2022/07/21 03:05:33;;;;;;;63.97;39.38;;;;;;;22.75;65.79;101100.47;4904737;28;124848;-77
2022/07/21 03:07:59;;;;;;;66.43;39.05;;;;;;;22.73;66.18;101106.59;4909035;28;120990;-78
2022/07/21 03:10:27;;;;;;;56.17;38.92;;;;;;;22.75;66.28;101108.88;4907865;28;121741;-78
2022/07/21 03:12:53;;;;;;;63.83;40.03;;;;;;;22.75;66.00;101111.66;4906675;28;121647;-78
2022/07/21 03:15:19;;;;;;;61.33;39.63;;;;;;;22.74;65.89;101119.28;4891911;28;121813;-78
2022/07/21 03:17:45;;;;;;;69.50;40.00;;;;;;;22.79;65.96;101131.69;4896990;28;121388;-78
2022/07/21 03:20:11;;;;;;;65.75;40.08;;;;;;;22.77;65.66;101139.84;4888177;28;121793;-78
2022/07/21 03:22:37;;;;;;;62.70;39.00;;;;;;;22.74;66.50;101138.09;4905418;28;121474;-78
2022/07/21 03:25:03;;;;;;;60.40;36.13;;;;;;;22.76;66.29;101152.31;4908060;28;122196;-78
2022/07/21 03:27:29;;;;;;;59.17;37.45;;;;;;;22.80;66.38;101170.31;4915588;28;121133;-77
2022/07/21 03:29:55;;;;;;;60.10;37.88;;;;;;;22.85;66.34;101193.94;4923699;28;121613;-78
2022/07/21 03:32:20;;;;;;;58.60;36.15;;;;;;;22.89;66.30;101203.56;4898425;28;124602;-78
2022/07/21 03:34:46;;;;;;;59.70;36.70;;;;;;;22.93;65.95;101215.19;4892602;28;121581;-78
2022/07/21 03:37:12;;;;;;;61.23;36.27;;;;;;;22.98;66.05;101210.84;4907909;28;122165;-78
2022/07/21 03:39:38;;;;;;;62.65;36.92;;;;;;;23.00;66.21;101210.31;4894694;28;125157;-78
2022/07/21 03:42:08;;;;;;;54.80;35.53;;;;;;;23.00;66.12;101210.31;4909796;28;121517;-78
2022/07/21 03:44:34;;;;;;;59.30;36.87;;;;;;;23.02;66.20;101200.13;4906562;28;122885;-78
2022/07/21 03:46:59;;;;;;;59.07;37.17;;;;;;;23.02;65.48;101194.53;4914805;28;121661;-78
2022/07/21 03:49:25;;;;;;;57.42;37.67;;;;;;;23.02;65.69;101196.56;4907902;28;121956;-78
2022/07/21 03:51:51;;;;;;;59.47;37.27;;;;;;;22.99;65.33;101187.19;4905492;28;121816;-78
2022/07/21 03:54:16;;;;;;;58.87;37.67;;;;;;;23.04;65.49;101169.59;4899342;28;122076;-78
2022/07/21 03:56:42;;;;;;;63.03;37.60;;;;;;;23.09;65.24;101162.41;4895332;28;125752;-78
2022/07/21 03:59:08;;;;;;;61.80;37.72;;;;;;;23.15;65.49;101177.84;4902557;28;125256;-78
2022/07/21 04:01:33;;;;;;;59.00;36.97;;;;;;;23.18;65.47;101182.38;4898056;28;121771;-78
2022/07/21 04:03:59;;;;;;;57.13;35.53;;;;;;;23.16;65.55;101176.56;4885372;28;124815;-78
2022/07/21 04:06:25;;;;;;;54.33;35.42;;;;;;;23.14;65.72;101175.56;4884138;28;122789;-78
2022/07/21 04:08:50;;;;;;;55.17;34.93;;;;;;;23.19;64.94;101178.31;4899327;28;122418;-78
2022/07/21 04:11:18;;;;;;;57.73;35.50;;;;;;;23.21;65.30;101170.16;4895573;28;122196;-78
2022/07/21 04:13:47;;;;;;;54.23;33.97;;;;;;;23.24;64.83;101176.72;4890425;28;121728;-77
2022/07/21 04:16:48;;;;;;;51.42;33.72;;;;;;;23.17;65.35;101169.66;4844254;28;122688;-78
2022/07/21 04:19:13;;;;;;;52.45;33.05;;;;;;;23.23;65.63;101184.38;4843157;28;122485;-78
2022/07/21 04:21:39;;;;;;;50.88;31.98;;;;;;;23.24;65.47;101180.28;4840342;28;123179;-78
2022/07/21 04:24:05;;;;;;;51.53;32.37;;;;;;;23.30;65.25;101185.06;4837931;28;122352;-78
2022/07/21 04:26:30;;;;;;;47.65;31.65;;;;;;;23.30;65.21;101177.41;4841875;28;122385;-78
2022/07/21 04:28:56;;;;;;;50.50;32.37;;;;;;;23.32;65.16;101179.69;4838269;28;123748;-78
2022/07/21 04:31:22;;;;;;;48.67;31.33;;;;;;;23.33;65.45;101184.00;4806834;28;125328;-78
2022/07/21 04:33:47;;;;;;;47.90;31.63;;;;;;;23.32;65.20;101179.69;4839228;28;121990;-78
2022/07/21 04:36:13;;;;;;;49.53;31.33;;;;;;;23.31;64.48;101172.56;4807022;28;124248;-78
2022/07/21 04:39:08;;;;;;;48.97;31.17;;;;;;;23.32;64.64;101163.66;4838876;28;122560;-78
2022/07/21 04:41:52;;;;;;;50.42;31.58;;;;;;;23.38;65.29;101169.16;4830112;28;122057;-78
2022/07/21 04:44:17;;;;;;;48.80;31.50;;;;;;;23.38;64.66;101150.31;4849909;28;123963;-78
2022/07/21 04:46:43;;;;;;;50.53;31.87;;;;;;;23.41;64.68;101162.50;4842325;28;121895;-78
2022/07/21 04:49:08;;;;;;;48.83;31.20;;;;;;;23.40;65.23;101170.16;4843251;28;122280;-78
2022/07/21 04:51:34;;;;;;;51.27;30.90;;;;;;;23.36;64.88;101168.94;4877965;28;125255;-78
2022/07/21 04:54:00;;;;;;;47.63;29.85;;;;;;;23.35;65.17;101175.81;4906117;28;121950;-78
2022/07/21 04:56:25;;;;;;;46.65;29.17;;;;;;;23.30;64.53;101174.63;4922293;28;121923;-78
2022/07/21 04:58:54;;;;;;;42.78;26.67;;;;;;;23.33;64.97;101176.34;4905937;28;124870;-78
2022/07/21 05:01:19;;;;;;;43.90;26.40;;;;;;;23.32;65.15;101171.28;4905910;28;121757;-78
2022/07/21 05:03:45;;;;;;;39.47;25.35;;;;;;;23.32;65.17;101166.44;4906830;28;121980;-78
2022/07/21 05:06:12;;;;;;;42.30;26.10;;;;;;;23.43;64.77;101173.97;4909031;28;122544;-78
2022/07/21 05:08:38;;;;;;;39.45;24.73;;;;;;;23.45;65.01;101172.13;4891118;28;125008;-78
2022/07/21 05:11:03;;;;;;;45.97;24.70;;;;;;;23.47;65.24;101174.41;4909256;28;123658;-78
2022/07/21 05:13:29;;;;;;;41.42;24.63;;;;;;;23.48;65.36;101173.13;4908612;28;122035;-78
2022/07/21 05:15:55;;;;;;;43.57;24.23;;;;;;;23.55;65.21;101172.50;4909067;28;124907;-78
2022/07/21 05:18:20;;;;;;;40.67;24.83;;;;;;;23.61;65.05;101173.22;4909477;28;122480;-78
2022/07/21 05:20:46;;;;;;;37.27;22.43;;;;;;;23.72;64.52;101166.72;4910856;28;122078;-78
2022/07/21 05:23:14;;;;;;;36.67;22.08;;;;;;;23.80;63.86;101171.16;4925398;28;122580;-78
2022/07/21 05:25:40;;;;;;;37.10;20.95;;;;;;;23.79;63.93;101177.31;4908974;28;122582;-78
2022/07/21 05:28:06;;;;;;;36.10;20.83;;;;;;;23.82;64.40;101174.19;4913892;28;122468;-78
2022/07/21 05:30:35;;;;;;;33.50;20.58;;;;;;;23.88;63.48;101169.25;4907954;28;125764;-78
2022/07/21 05:33:01;;;;;;;35.17;20.02;;;;;;;23.89;64.29;101159.56;4899549;28;122209;-79
2022/07/21 05:35:27;;;;;;;34.42;19.35;;;;;;;23.93;63.99;101167.69;4898713;28;122254;-79
2022/07/21 05:37:52;;;;;;;31.35;18.13;;;;;;;23.99;63.93;101178.78;4896878;28;122280;-78
2022/07/21 05:40:21;;;;;;;32.13;18.45;;;;;;;23.99;63.62;101168.34;4888253;28;122359;-78
2022/07/21 05:42:46;;;;;;;29.63;17.52;;;;;;;24.02;63.31;101169.31;4896828;28;122219;-79
2022/07/21 05:45:12;;;;;;;31.65;18.05;;;;;;;24.14;63.95;101179.84;4879073;28;125395;-78
2022/07/21 05:48:07;;;;;;;27.42;16.52;;;;;;;24.24;64.07;101182.97;4847580;28;123546;-78
2022/07/21 05:50:33;;;;;;;30.17;15.75;;;;;;;24.34;63.23;101192.53;4907712;28;124047;-79
2022/07/21 05:52:58;;;;;;;25.65;14.77;;;;;;;24.51;62.42;101188.69;4933455;28;122376;-78
2022/07/21 05:55:24;;;;;;;26.53;14.13;;;;;;;24.62;62.05;101183.66;4914784;28;124137;-78
2022/07/21 05:57:49;;;;;;;27.47;14.37;;;;;;;24.71;61.92;101186.03;4880570;28;124754;-79
2022/07/21 06:00:16;;;;;;;25.73;13.48;;;;;;;24.78;61.71;101184.63;4902356;28;122143;-78
2022/07/21 06:02:45;;;;;;;27.45;13.45;;;;;;;24.78;61.53;101181.81;4900059;28;122552;-79
2022/07/21 06:05:11;;;;;;;25.92;12.25;;;;;;;24.92;61.40;101191.75;4894610;28;122872;-79
2022/07/21 06:07:54;;;;;;;18.40;11.48;;;;;;;24.99;60.56;101199.56;4914120;28;122897;-78
2022/07/21 06:10:20;;;;;;;23.53;11.43;;;;;;;24.92;60.38;101179.78;4903126;28;122332;-79
2022/07/21 06:12:45;;;;;;;27.23;11.17;;;;;;;24.98;60.41;101184.00;4903470;28;124596;-79
2022/07/21 06:15:12;;;;;;;23.67;10.65;;;;;;;24.95;60.87;101171.03;4896350;28;124272;-78
2022/07/21 06:18:07;;;;;;;20.52;10.05;;;;;;;25.06;60.69;101164.47;4883087;28;124877;-78
2022/07/21 06:20:32;;;;;;;23.27;9.73;;;;;;;25.18;60.53;101181.84;4914407;28;122680;-78
2022/07/21 06:22:58;;;;;;;21.77;10.40;;;;;;;25.24;60.19;101186.06;4901103;28;123992;-78
2022/07/21 06:25:23;;;;;;;20.67;9.77;;;;;;;25.30;60.56;101183.13;4904239;28;122556;-79
2022/07/21 06:27:52;;;;;;;20.77;9.73;;;;;;;25.29;59.69;101171.13;4906840;28;123646;-78
2022/07/21 06:30:18;;;;;;;21.20;9.27;;;;;;;25.32;59.89;101170.09;4898450;28;122733;-79
2022/07/21 06:32:43;;;;;;;21.10;9.53;;;;;;;25.33;59.52;101165.22;4893893;28;124736;-79
2022/07/21 06:35:09;;;;;;;20.48;8.95;;;;;;;25.37;59.50;101160.03;4878871;28;124293;-79
2022/07/21 06:37:35;;;;;;;19.40;8.38;;;;;;;25.38;60.09;101153.09;4905685;28;125846;-78
2022/07/21 06:40:01;;;;;;;18.00;8.27;;;;;;;25.47;59.45;101163.88;4891755;28;122284;-79
2022/07/21 06:42:26;;;;;;;19.33;8.23;;;;;;;25.57;58.89;101169.81;4900922;28;122178;-79
2022/07/21 06:44:52;;;;;;;19.40;8.52;;;;;;;25.60;58.93;101158.25;4900540;28;122661;-78
2022/07/21 06:47:18;;;;;;;16.37;7.60;;;;;;;25.66;59.57;101153.25;4906997;28;122124;-79
2022/07/21 06:49:43;;;;;;;20.47;8.07;;;;;;;25.74;58.60;101152.59;4892111;28;125281;-79
2022/07/21 06:52:09;;;;;;;15.18;7.30;;;;;;;25.76;58.20;101141.56;4901143;28;125488;-78
2022/07/21 06:54:38;;;;;;;18.47;7.20;;;;;;;25.91;57.88;101133.28;4927663;28;122283;-78
2022/07/21 06:57:03;;;;;;;17.17;7.15;;;;;;;26.08;58.02;101124.47;4922676;28;122588;-79
2022/07/21 06:59:29;;;;;;;19.17;7.50;;;;;;;26.25;57.27;101125.53;4907650;28;122728;-78
2022/07/21 07:01:55;;;;;;;16.70;7.45;;;;;;;26.37;56.99;101125.28;4907393;28;122451;-78
2022/07/21 07:04:20;;;;;;;18.58;7.32;;;;;;;26.48;56.90;101111.66;4904736;28;122534;-78
2022/07/21 07:06:50;;;;;;;18.52;7.45;;;;;;;26.52;55.44;101103.66;4907183;28;122282;-78
2022/07/21 07:09:18;;;;;;;16.50;6.80;;;;;;;26.52;55.41;101083.94;4923426;28;122545;-78
2022/07/21 07:11:46;;;;;;;17.15;6.55;;;;;;;26.46;55.96;101077.69;4906266;28;122411;-78
2022/07/21 07:14:13;;;;;;;17.27;6.33;;;;;;;26.57;56.46;101085.09;4917693;28;122633;-78
2022/07/21 07:16:40;;;;;;;14.05;6.53;;;;;;;26.57;55.39;101073.84;4908966;28;124902;-78
2022/07/21 07:19:05;;;;;;;16.70;6.33;;;;;;;26.60;55.84;101093.19;4906022;28;122397;-79
2022/07/21 07:21:31;;;;;;;16.70;6.27;;;;;;;26.55;55.45;101096.91;4901710;28;122850;-79
2022/07/21 07:23:57;;;;;;;15.18;6.22;;;;;;;26.52;55.53;101109.28;4901440;28;125195;-78
2022/07/21 07:26:22;;;;;;;16.30;6.03;;;;;;;26.52;55.12;101102.91;4904138;28;122559;-79
2022/07/21 07:28:51;;;;;;;12.67;5.87;;;;;;;26.57;55.67;101127.31;4907325;28;122991;-78
2022/07/21 07:31:16;;;;;;;14.68;6.10;;;;;;;26.68;56.57;101135.44;4910416;28;123118;-78
2022/07/21 07:33:44;;;;;;;13.20;6.10;;;;;;;26.78;55.59;101141.31;4876340;28;122379;-78
2022/07/21 07:36:42;;;;;;;13.23;5.95;;;;;;;26.83;55.37;101131.97;4878702;28;124377;-79
2022/07/21 07:39:08;;;;;;;14.63;5.90;;;;;;;26.86;54.75;101139.28;4909202;28;125327;-79
2022/07/21 07:41:33;;;;;;;13.30;5.65;;;;;;;26.90;54.85;101139.69;4898505;28;122433;-77
2022/07/21 07:44:02;;;;;;;15.50;6.20;;;;;;;26.96;55.47;101139.53;4896463;28;126624;-78
2022/07/21 07:46:27;;;;;;;14.35;5.72;;;;;;;27.04;54.60;101148.81;4904061;28;122947;-79
2022/07/21 07:48:53;;;;;;;16.55;5.57;;;;;;;27.23;54.17;101160.53;4887023;28;124248;-78
2022/07/21 07:51:19;;;;;;;12.97;5.40;;;;;;;27.36;53.51;101154.00;4901849;28;122545;-79
2022/07/21 07:53:44;;;;;;;13.90;5.50;;;;;;;27.41;53.61;101150.25;4888925;28;122733;-79
2022/07/21 07:56:10;;;;;;;12.38;5.00;;;;;;;27.39;53.08;101145.19;4902656;28;123243;-79
2022/07/21 07:58:36;;;;;;;13.48;5.57;;;;;;;27.32;53.23;101148.00;4899458;28;124627;-78
2022/07/21 08:01:02;;;;;;;10.68;5.40;;;;;;;27.26;53.32;101150.97;4898268;28;123228;-78
2022/07/21 08:03:28;;;;;;;14.02;5.65;;;;;;;27.11;53.25;101154.47;4883211;28;123030;-78
2022/07/21 08:05:58;;;;;;;16.05;5.60;;;;;;;26.96;53.20;101153.59;4896425;28;123105;-79
2022/07/21 08:08:24;;;;;;;12.40;5.70;;;;;;;26.88;53.66;101162.00;4901128;28;122860;-78
2022/07/21 08:10:50;;;;;;;14.53;5.23;;;;;;;26.81;53.93;101160.66;4915812;28;122759;-79
2022/07/21 08:13:17;;;;;;;11.10;5.13;;;;;;;26.81;54.16;101183.19;4916033;28;122578;-78
2022/07/21 08:15:44;;;;;;;15.53;5.30;;;;;;;26.84;54.93;101184.13;4897350;28;123221;-78
2022/07/21 08:18:11;;;;;;;12.55;5.15;;;;;;;26.91;54.57;101172.16;4910723;28;122919;-78
2022/07/21 08:20:37;;;;;;;12.17;5.23;;;;;;;27.02;53.82;101162.69;4906986;28;122440;-78
2022/07/21 08:23:05;;;;;;;11.40;5.30;;;;;;;27.22;53.20;101181.56;4914285;28;122946;-79
2022/07/21 08:25:30;;;;;;;12.10;4.90;;;;;;;27.33;52.71;101177.66;4910024;28;122821;-78
2022/07/21 08:27:56;;;;;;;12.77;5.23;;;;;;;27.39;52.75;101176.19;4896453;28;124856;-78
2022/07/21 08:30:22;;;;;;;14.38;5.20;;;;;;;27.35;52.54;101146.88;4902567;28;122703;-78
2022/07/21 08:32:48;;;;;;;11.10;5.10;;;;;;;27.36;52.52;101146.31;4897768;28;123047;-78
2022/07/21 08:35:13;;;;;;;13.82;5.28;;;;;;;27.37;53.11;101135.78;4917403;28;122727;-78
2022/07/21 08:37:39;;;;;;;13.98;5.65;;;;;;;27.38;53.30;101123.22;4879266;28;125679;-78
2022/07/21 08:40:07;;;;;;;12.15;5.10;;;;;;;27.38;53.71;101101.44;4901963;28;122466;-78
2022/07/21 08:42:33;;;;;;;11.73;5.32;;;;;;;27.41;53.37;101091.09;4922816;28;123423;-78
2022/07/21 08:44:59;;;;;;;12.02;5.28;;;;;;;27.34;52.81;101078.53;4916821;28;124593;-78
2022/07/21 08:47:26;;;;;;;13.60;5.45;;;;;;;27.30;53.07;101091.47;4901387;28;123309;-78
2022/07/21 08:49:53;;;;;;;11.43;4.90;;;;;;;27.23;53.54;101104.22;4904928;28;122480;-80
2022/07/21 08:52:18;;;;;;;12.13;5.25;;;;;;;27.24;52.83;101121.88;4911017;28;123966;-79
2022/07/21 08:54:47;;;;;;;12.03;5.07;;;;;;;27.18;53.05;101131.22;4914423;28;124509;-78
2022/07/21 08:57:12;;;;;;;13.07;5.28;;;;;;;27.16;52.97;101121.81;4912798;28;125914;-78
2022/07/21 08:59:40;;;;;;;12.23;5.40;;;;;;;27.31;53.82;101141.59;4914042;28;122394;-78
2022/07/21 09:02:25;;;;;;;12.00;4.97;;;;;;;27.54;53.64;101144.50;4919778;28;122698;-78
2022/07/21 09:04:54;;;;;;;12.85;5.10;;;;;;;27.74;52.48;101145.72;4924414;28;123037;-78
2022/07/21 09:07:19;;;;;;;11.32;5.07;;;;;;;27.83;52.47;101143.09;4917330;28;122374;-78
2022/07/21 09:09:58;;;;;;;12.60;5.13;;;;;;;27.97;51.74;101143.69;4887215;28;125387;-79
2022/07/21 09:12:24;;;;;;;10.77;5.07;;;;;;;28.02;51.60;101130.72;4919909;28;122519;-79
2022/07/21 09:14:50;;;;;;;13.50;5.25;;;;;;;28.01;52.50;101124.31;4897710;28;124297;-79
2022/07/21 09:17:18;;;;;;;9.98;4.63;;;;;;;27.95;51.62;101120.94;4927041;28;124423;-79
2022/07/21 09:19:46;;;;;;;10.10;4.93;;;;;;;27.85;52.83;101119.97;4916204;28;123261;-79
2022/07/21 09:22:16;;;;;;;10.50;4.90;;;;;;;27.74;51.97;101112.63;4902763;28;124640;-78
2022/07/21 09:24:49;;;;;;;11.53;5.30;;;;;;;27.57;51.83;101097.53;4915897;28;123210;-78
2022/07/21 09:27:20;;;;;;;11.80;4.88;;;;;;;27.44;52.56;101113.28;4921844;28;123193;-78
2022/07/21 09:29:46;;;;;;;11.80;5.10;;;;;;;27.37;53.47;101116.06;4900078;28;123879;-78
2022/07/21 09:32:20;;;;;;;12.97;5.43;;;;;;;27.23;52.58;101114.72;4900917;28;122612;-79
2022/07/21 09:35:00;;;;;;;12.60;5.40;;;;;;;27.07;53.43;101120.28;4884863;28;124844;-78
2022/07/21 09:37:27;;;;;;;10.23;5.30;;;;;;;26.97;53.31;101130.53;4911348;28;123299;-79
2022/07/21 09:39:57;;;;;;;11.47;5.60;;;;;;;26.87;53.39;101146.44;4917582;28;122746;-78
2022/07/21 09:42:25;;;;;;;14.05;5.43;;;;;;;26.78;53.14;101163.84;4892249;28;122391;-78
2022/07/21 09:44:58;;;;;;;13.02;5.43;;;;;;;26.68;54.21;101163.56;4899031;28;123260;-78
2022/07/21 09:47:29;;;;;;;10.27;5.22;;;;;;;26.63;54.75;101167.28;4901426;28;122092;-79
2022/07/21 09:49:56;;;;;;;11.43;5.32;;;;;;;26.55;54.61;101172.13;4917642;28;122745;-79
2022/07/21 09:52:45;;;;;;;12.55;5.80;;;;;;;26.49;54.79;101163.03;4904118;28;122468;-78
2022/07/21 09:55:12;;;;;;;12.02;5.60;;;;;;;26.42;55.07;101166.56;4901937;28;124500;-79
2022/07/21 09:57:38;;;;;;;9.82;5.28;;;;;;;26.27;55.22;101153.88;4902768;28;122853;-78
2022/07/21 10:00:07;;;;;;;9.35;5.13;;;;;;;26.26;54.95;101163.59;4905867;28;122554;-78
2022/07/21 10:02:33;;;;;;;13.02;5.60;;;;;;;26.19;56.32;101158.66;4906638;28;123221;-78
2022/07/21 10:05:00;;;;;;;13.30;5.47;;;;;;;26.18;56.24;101171.19;4922545;28;123035;-78
2022/07/21 10:07:49;;;;;;;12.80;5.90;;;;;;;26.08;57.11;101173.00;4885783;28;123314;-78
2022/07/21 10:10:16;;;;;;;12.73;6.03;;;;;;;26.10;57.16;101178.81;4916126;28;122958;-78
2022/07/21 10:12:44;;;;;;;12.70;6.40;;;;;;;25.97;57.01;101174.00;4918188;28;122375;-78
2022/07/21 10:15:10;;;;;;;13.63;6.50;;;;;;;25.99;57.42;101195.94;4903379;28;123241;-78
2022/07/21 10:17:38;;;;;;;12.82;6.35;;;;;;;25.96;57.54;101202.66;4917449;28;122925;-78
2022/07/21 10:20:23;;;;;;;15.57;6.87;;;;;;;26.05;58.09;101218.31;4917963;28;122889;-78
2022/07/21 10:23:16;;;;;;;13.67;6.30;;;;;;;26.06;57.54;101223.41;4919528;28;122658;-78
2022/07/21 10:25:43;;;;;;;12.40;6.38;;;;;;;26.05;58.04;101216.25;4905928;28;123058;-78
2022/07/21 10:28:23;;;;;;;13.25;6.85;;;;;;;26.15;58.26;101213.72;4918454;28;125268;-78
2022/07/21 10:30:59;;;;;;;13.70;7.03;;;;;;;26.27;58.30;101203.72;4920536;28;122606;-80
2022/07/21 10:33:47;;;;;;;15.70;7.27;;;;;;;26.42;59.09;101215.13;4919978;28;123972;-79
2022/07/21 10:36:28;;;;;;;16.80;8.30;;;;;;;26.68;58.52;101205.00;4897976;28;122928;-79
2022/07/21 10:39:06;;;;;;;14.15;7.28;;;;;;;26.91;57.38;101198.25;4897804;28;124638;-78
2022/07/21 10:41:40;;;;;;;14.65;7.63;;;;;;;27.05;56.24;101192.53;4911668;28;122166;-79
2022/07/21 10:44:29;;;;;;;14.07;7.28;;;;;;;27.13;56.33;101191.25;4904411;28;123600;-79
2022/07/21 10:47:17;;;;;;;14.10;7.30;;;;;;;27.31;56.20;101200.75;4904173;28;125799;-79
2022/07/21 10:49:55;;;;;;;15.63;6.97;;;;;;;27.56;56.69;101195.41;4903541;28;122767;-79
2022/07/21 10:52:40;;;;;;;13.70;6.20;;;;;;;27.91;54.80;101201.53;4872795;28;124381;-79
2022/07/21 10:55:17;;;;;;;12.77;6.18;;;;;;;28.20;54.04;101185.25;4905197;28;123987;-79
2022/07/21 10:57:45;;;;;;;12.65;6.15;;;;;;;28.59;53.71;101198.06;4911997;28;122867;-78
2022/07/21 11:00:21;;;;;;;14.45;6.53;;;;;;;28.68;52.81;101186.97;4907231;28;122639;-80
2022/07/21 11:02:50;;;;;;;14.40;6.65;;;;;;;28.77;52.05;101187.69;4921773;28;122324;-79
2022/07/21 11:05:16;;;;;;;13.98;6.53;;;;;;;28.70;52.97;101189.97;4903173;28;123229;-79
2022/07/21 11:08:17;;;;;;;11.52;6.15;;;;;;;28.62;52.41;101186.38;4884654;28;124336;-79
2022/07/21 11:10:51;;;;;;;14.05;6.78;;;;;;;28.64;53.04;101183.00;4904307;28;122800;-79
2022/07/21 11:13:19;;;;;;;14.18;6.50;;;;;;;28.63;52.31;101187.91;4901748;28;125332;-80